Silver Wind — C6FG2 — position and weather

sailwx.info

Track history (hours):
 
Tides and Currents Weather Stations Pressure Air Temp Water Temp Dewpoint Dewpoint Depression Visibility Wind Speed Wind Dir Waves Ship Positions

Silver Wind

Operator: V Ships Leisure

Last reported at 2018-Aug-18 00:30 UTC. Time now 2018-Aug-18 00:47 UTC.
Position N 53°26' E 004°50'.

Length 156 m; draft 5.7 m.

Type: Passenger vessel. MMSI: 308814000.

Date/timePositionNaut miles runAvg speedWind from/ knotsBaromVisibWave heightAir tempDewpointWater temp
2018-Aug-18 00:30N 53°26' E 004°50'612.7
2018-Aug-18 00:00N 53°22' E 004°41'713.2
2018-Aug-17 23:29N 53°16' E 004°36'713.4
2018-Aug-17 23:00N 53°10' E 004°32'1513.3
2018-Aug-17 21:54N 52°58' E 004°19'2113.2
2018-Aug-17 20:21N 52°39' E 004°06'712.7
2018-Aug-17 19:48N 52°32' E 004°10'413.7
2018-Aug-17 19:30N 52°31' E 004°16'612.1
2018-Aug-17 19:00N 52°29' E 004°26'611.5
2018-Aug-17 18:30N 52°28' E 004°35'1 2.0
2018-Aug-17 18:00N 52°28' E 004°36'2 4.4
2018-Aug-17 17:30N 52°28' E 004°40'4 7.8
2018-Aug-17 17:00N 52°26' E 004°46'4 8.0
2018-Aug-17 16:30N 52°25' E 004°52'3 5.5
2018-Aug-17 16:00N 52°23' E 004°55'0 0.0
2018-Aug-17 15:29N 52°23' E 004°55'0 0.0
2018-Aug-17 14:59N 52°23' E 004°55'0 0.0
2018-Aug-17 13:59N 52°23' E 004°55'0 0.0
2018-Aug-17 13:26N 52°23' E 004°55'0 0.0
2018-Aug-17 12:59N 52°23' E 004°55'0 0.0
2018-Aug-17 12:29N 52°23' E 004°55'0 0.0
2018-Aug-17 11:59N 52°23' E 004°55'0 0.0
2018-Aug-17 11:29N 52°23' E 004°55'0 0.0
2018-Aug-17 10:59N 52°23' E 004°55'0 0.0
2018-Aug-17 10:29N 52°23' E 004°55'0 0.0
2018-Aug-17 09:59N 52°23' E 004°55'0 0.0
2018-Aug-17 09:29N 52°23' E 004°55'0 0.0
2018-Aug-17 08:59N 52°23' E 004°55'0 0.0
2018-Aug-17 08:29N 52°23' E 004°55'0 0.0
2018-Aug-17 07:59N 52°23' E 004°55'0 0.0
2018-Aug-17 07:29N 52°23' E 004°55'0 0.0
2018-Aug-17 06:59N 52°23' E 004°55'0 0.0
2018-Aug-17 06:29N 52°23' E 004°55'0 0.0
2018-Aug-17 05:59N 52°23' E 004°55'0 0.0
2018-Aug-17 05:29N 52°23' E 004°55'0 0.0
2018-Aug-17 04:59N 52°23' E 004°55'0 0.1
2018-Aug-17 04:30N 52°23' E 004°55'2 5.0
2018-Aug-17 04:00N 52°25' E 004°52'3 6.7
2018-Aug-17 03:30N 52°26' E 004°47'4 7.4
2018-Aug-17 03:00N 52°27' E 004°41'3 6.0
2018-Aug-17 02:30N 52°28' E 004°37'1 1.8
2018-Aug-17 02:00N 52°28' E 004°35'3 5.5
2018-Aug-17 01:30N 52°28' E 004°31'3 6.6
2018-Aug-17 01:00N 52°28' E 004°25'4 7.0
2018-Aug-17 00:30N 52°28' E 004°19'4 9.0
2018-Aug-17 00:00N 52°29' E 004°12'5 9.6
2018-Aug-16 23:30N 52°28' E 004°04'510.0
2018-Aug-16 23:00N 52°27' E 003°56'4 8.5
2018-Aug-16 22:30N 52°26' E 003°50'9 9.2
2018-Aug-16 21:29N 52°24' E 003°35'4 9.2
2018-Aug-16 21:00N 52°21' E 003°30'5 9.1
2018-Aug-16 20:30N 52°18' E 003°24'4 8.9
2018-Aug-16 20:00N 52°15' E 003°19'4 8.8
2018-Aug-16 19:30N 52°11' E 003°14'27 9.6
2018-Aug-16 16:45N 51°51' E 002°45'10 9.7
2018-Aug-16 15:42N 51°44' E 002°35'2 9.9
2018-Aug-16 15:29N 51°42' E 002°32'5 9.7
2018-Aug-16 14:59N 51°39' E 002°27'5 9.7
2018-Aug-16 14:29N 51°35' E 002°22'5 9.9
2018-Aug-16 14:00N 51°31' E 002°17'5 9.7
2018-Aug-16 13:30N 51°28' E 002°11'5 9.7
2018-Aug-16 13:00N 51°25' E 002°06'4 8.2
2018-Aug-16 12:30N 51°24' E 001°60'5 9.8
2018-Aug-16 12:00N 51°27' E 001°54'5 9.8
2018-Aug-16 11:30N 51°30' E 001°47'510.0
2018-Aug-16 11:00N 51°29' E 001°39'5 9.6
2018-Aug-16 10:30N 51°26' E 001°33'3 7.1
2018-Aug-16 10:01N 51°24' E 001°29'4 7.4
2018-Aug-16 09:30N 51°27' E 001°27'714.2
2018-Aug-16 09:00N 51°29' E 001°16'714.3
2018-Aug-16 08:30N 51°30' E 001°04'815.7
2018-Aug-16 08:00N 51°29' E 000°52'917.7
2018-Aug-16 07:30N 51°30' E 000°37'714.6
2018-Aug-16 07:01N 51°27' E 000°27'510.4
2018-Aug-16 06:31N 51°28' E 000°18'611.3
2018-Aug-16 06:00N 51°30' E 000°10'4 0.1
2018-Aug-14 03:14N 51°30' E 000°04'210.3
2018-Aug-14 03:00N 51°31' E 000°07'510.0
2018-Aug-14 02:30N 51°29' E 000°14'5 9.6
2018-Aug-14 02:01N 51°27' E 000°21'4 8.3
2018-Aug-14 01:30N 51°29' E 000°27'510.0
2018-Aug-14 01:00N 51°30' E 000°35'714.2
2018-Aug-14 00:30N 51°29' E 000°46'714.2
2018-Aug-14 00:00N 51°29' E 000°58'714.1
2018-Aug-13 23:30N 51°29' E 001°09'715.0
2018-Aug-13 23:00N 51°28' E 001°21'714.9
2018-Aug-13 22:30N 51°29' E 001°33'612.0
2018-Aug-13 22:01N 51°31' E 001°42'918.5
2018-Aug-13 21:31N 51°36' E 001°55'918.5
2018-Aug-13 21:00N 51°43' E 002°04'917.7
2018-Aug-13 20:30N 51°51' E 002°11'917.3
2018-Aug-13 20:01N 51°59' E 002°15'816.9
2018-Aug-13 19:30N 52°07' E 002°16'916.1
2018-Aug-13 18:58N 52°16' E 002°18'21614.3
2018-Aug-13 03:50N 55°22' W 000°48'1117.2
2018-Aug-13 03:13N 55°29' W 001°01'717.2
2018-Aug-13 02:49N 55°34' W 001°11'717.2
2018-Aug-13 02:25N 55°39' W 001°19'717.5
2018-Aug-13 02:01N 55°44' W 001°28'817.0
2018-Aug-13 01:31N 55°49' W 001°39'816.2
2018-Aug-13 01:01N 55°55' W 001°50'815.8
2018-Aug-13 00:30N 56°00' W 002°00'815.5
2018-Aug-13 00:00N 56°06' W 002°10'1914.5
2018-Aug-12 22:43N 56°08' W 002°44'314.5
2018-Aug-12 22:30N 56°07' W 002°49'815.5
2018-Aug-12 22:01N 56°03' W 003°00'611.1
2018-Aug-12 21:29N 56°00' W 003°10'1 2.7
2018-Aug-12 21:01N 55°59' W 003°11'0 0.0
2018-Aug-12 20:30N 55°59' W 003°11'0 0.9
2018-Aug-12 20:00N 55°59' W 003°11'0 0.0
2018-Aug-12 19:28N 55°59' W 003°11'0 0.0
2018-Aug-12 18:58N 55°59' W 003°11'0 0.0
2018-Aug-12 18:28N 55°59' W 003°11'0 0.0
2018-Aug-12 17:58N 55°59' W 003°11'0 0.0
2018-Aug-12 17:28N 55°59' W 003°11'0 0.0
2018-Aug-12 16:58N 55°59' W 003°11'0 0.0
2018-Aug-12 16:28N 55°59' W 003°11'0 0.0
2018-Aug-12 15:58N 55°59' W 003°11'0 0.0
2018-Aug-12 15:28N 55°59' W 003°11'0 0.0
2018-Aug-12 14:58N 55°59' W 003°11'0 0.0
2018-Aug-12 14:28N 55°59' W 003°11'0 0.0
2018-Aug-12 13:58N 55°59' W 003°11'0 0.0
2018-Aug-12 13:28N 55°59' W 003°11'0 0.0
2018-Aug-12 12:58N 55°59' W 003°11'0 0.0
2018-Aug-12 12:28N 55°59' W 003°11'0 0.0
2018-Aug-12 11:58N 55°59' W 003°11'0 0.0
2018-Aug-12 11:28N 55°59' W 003°11'0 0.0
2018-Aug-12 10:58N 55°59' W 003°11'0 0.0
2018-Aug-12 10:28N 55°59' W 003°11'0 0.0
2018-Aug-12 09:58N 55°59' W 003°11'0 0.0
2018-Aug-12 09:28N 55°59' W 003°11'0 0.0
2018-Aug-12 08:58N 55°59' W 003°11'0 0.0
2018-Aug-12 08:28N 55°59' W 003°11'0 0.0
2018-Aug-12 07:58N 55°59' W 003°11'0 0.0
2018-Aug-12 07:28N 55°59' W 003°11'0 0.0
2018-Aug-12 06:58N 55°59' W 003°11'0 0.0
2018-Aug-12 06:28N 55°59' W 003°11'0 0.0
2018-Aug-12 05:58N 55°59' W 003°11'0 0.0
2018-Aug-12 05:28N 55°59' W 003°11'0 0.0
2018-Aug-12 04:58N 55°59' W 003°11'0 0.0
2018-Aug-12 04:28N 55°59' W 003°11'0 0.0
2018-Aug-12 03:58N 55°59' W 003°11'0 0.0
2018-Aug-12 03:28N 55°59' W 003°11'0 0.0
2018-Aug-12 02:58N 55°59' W 003°11'0 0.0
2018-Aug-12 02:28N 55°59' W 003°11'0 0.0
2018-Aug-12 01:58N 55°59' W 003°11'0 0.0
2018-Aug-12 01:28N 55°59' W 003°11'0 0.0
2018-Aug-12 00:58N 55°59' W 003°11'0 0.0
2018-Aug-12 00:28N 55°59' W 003°11'0 0.0
2018-Aug-11 23:58N 55°59' W 003°11'0 0.0
2018-Aug-11 23:28N 55°59' W 003°11'0 0.0
2018-Aug-11 22:58N 55°59' W 003°11'0 0.0
2018-Aug-11 22:28N 55°59' W 003°11'0 0.0
2018-Aug-11 21:58N 55°59' W 003°11'0 0.0
2018-Aug-11 21:28N 55°59' W 003°11'0 0.0
2018-Aug-11 20:58N 55°59' W 003°11'0 0.0
2018-Aug-11 20:28N 55°59' W 003°11'0 0.0
2018-Aug-11 19:58N 55°59' W 003°11'0 0.0
2018-Aug-11 19:28N 55°59' W 003°11'0 0.0
2018-Aug-11 18:58N 55°59' W 003°11'0 0.0
2018-Aug-11 18:28N 55°59' W 003°11'0 0.0
2018-Aug-11 17:58N 55°59' W 003°11'0 0.0
2018-Aug-11 17:25N 55°59' W 003°11'0 0.0
2018-Aug-11 16:58N 55°59' W 003°11'0 0.0
2018-Aug-11 16:28N 55°59' W 003°11'0 0.0
2018-Aug-11 15:58N 55°59' W 003°11'0 0.0
2018-Aug-11 15:28N 55°59' W 003°11'0 0.0
2018-Aug-11 14:58N 55°59' W 003°11'0 0.0
2018-Aug-11 14:28N 55°59' W 003°11'0 0.0
2018-Aug-11 14:00N 55°59' W 003°11'0 0.0
2018-Aug-11 13:30N 55°59' W 003°11'0 0.8
2018-Aug-11 13:00N 55°59' W 003°11'1 1.6
2018-Aug-11 12:29N 55°60' W 003°12'4 8.0
2018-Aug-11 12:00N 56°01' W 003°05'713.7
2018-Aug-11 11:30N 56°04' W 002°54'816.8
2018-Aug-11 11:00N 56°07' W 002°40'714.3
2018-Aug-11 10:30N 56°08' W 002°27'611.5
2018-Aug-11 09:58N 56°12' W 002°18'611.8
2018-Aug-11 09:29N 56°17' W 002°14'612.1
2018-Aug-11 09:00N 56°23' W 002°11'3412.4
2018-Aug-11 06:13N 56°55' W 001°51'312.8
2018-Aug-11 06:00N 56°58' W 001°50'612.8
2018-Aug-11 05:30N 57°04' W 001°47'713.2
2018-Aug-11 05:00N 57°10' W 001°44'713.1
2018-Aug-11 04:30N 57°17' W 001°42'712.8
2018-Aug-11 03:57N 57°24' W 001°39'612.6
2018-Aug-11 03:30N 57°29' W 001°38'813.5
2018-Aug-11 02:55N 57°37' W 001°38'8214.0
2018-Aug-10 21:06N 58°53' W 002°34'713.8
2018-Aug-10 20:37N 58°59' W 002°40'214.5
2018-Aug-10 20:31N 58°60' W 002°43'713.8
2018-Aug-10 20:00N 59°01' W 002°56'2 3.5
2018-Aug-10 19:29N 59°00' W 002°58'0 0.0
2018-Aug-10 18:59N 59°00' W 002°58'0 0.0
2018-Aug-10 18:26N 59°00' W 002°58'0 0.0
2018-Aug-10 17:53N 59°00' W 002°58'0 0.0
2018-Aug-10 17:29N 59°00' W 002°58'0 0.0
2018-Aug-10 16:59N 59°00' W 002°58'0 0.0
2018-Aug-10 16:29N 59°00' W 002°58'0 0.0
2018-Aug-10 15:59N 59°00' W 002°58'0 0.0
2018-Aug-10 15:29N 59°00' W 002°58'0 0.0
2018-Aug-10 14:59N 59°00' W 002°58'0 0.0
2018-Aug-10 14:29N 59°00' W 002°58'0 0.0
2018-Aug-10 13:59N 59°00' W 002°58'0 0.0
2018-Aug-10 13:29N 59°00' W 002°58'0 0.0
2018-Aug-10 12:56N 59°00' W 002°58'0 0.0
2018-Aug-10 12:29N 59°00' W 002°58'0 0.0
2018-Aug-10 11:59N 59°00' W 002°58'0 0.0
2018-Aug-10 11:29N 59°00' W 002°58'0 0.0
2018-Aug-10 10:59N 59°00' W 002°58'0 0.0
2018-Aug-10 10:29N 59°00' W 002°58'0 0.0
2018-Aug-10 09:59N 59°00' W 002°58'0 0.0
2018-Aug-10 09:29N 59°00' W 002°58'0 0.0
2018-Aug-10 08:59N 59°00' W 002°58'0 0.0
2018-Aug-10 08:29N 59°00' W 002°58'0 0.0
2018-Aug-10 07:59N 59°00' W 002°58'0 0.0
2018-Aug-10 07:29N 59°00' W 002°58'0 0.0
2018-Aug-10 06:59N 59°00' W 002°58'0 0.1
2018-Aug-10 06:30N 58°60' W 002°58'4 7.1
2018-Aug-10 06:00N 59°01' W 002°52'510.6
2018-Aug-10 05:30N 58°60' W 002°41'510.0
2018-Aug-10 05:00N 58°60' W 002°32'91 2.7
2018-Aug-08 19:49N 58°31' W 005°18'  
Track history (hours):
 
Tides and Currents Weather Stations Pressure Air Temp Water Temp Dewpoint Dewpoint Depression Visibility Wind Speed Wind Dir Waves Ship Positions

Silver Wind

Operator: V Ships Leisure

Last reported at 2018-Aug-18 00:30 UTC. Time now 2018-Aug-18 00:47 UTC.
Position N 53°26' E 004°50'.

Length 156 m; draft 5.7 m.

Type: Passenger vessel. MMSI: 308814000.

Date/timePositionNaut miles runAvg speedWind from/ knotsBaromVisibWave heightAir tempDewpointWater temp
2018-Aug-18 00:30N 53°26' E 004°50'612.7
2018-Aug-18 00:00N 53°22' E 004°41'713.2
2018-Aug-17 23:29N 53°16' E 004°36'713.4
2018-Aug-17 23:00N 53°10' E 004°32'1513.3
2018-Aug-17 21:54N 52°58' E 004°19'2113.2
2018-Aug-17 20:21N 52°39' E 004°06'712.7
2018-Aug-17 19:48N 52°32' E 004°10'413.7
2018-Aug-17 19:30N 52°31' E 004°16'612.1
2018-Aug-17 19:00N 52°29' E 004°26'611.5
2018-Aug-17 18:30N 52°28' E 004°35'1 2.0
2018-Aug-17 18:00N 52°28' E 004°36'2 4.4
2018-Aug-17 17:30N 52°28' E 004°40'4 7.8
2018-Aug-17 17:00N 52°26' E 004°46'4 8.0
2018-Aug-17 16:30N 52°25' E 004°52'3 5.5
2018-Aug-17 16:00N 52°23' E 004°55'0 0.0
2018-Aug-17 15:29N 52°23' E 004°55'0 0.0
2018-Aug-17 14:59N 52°23' E 004°55'0 0.0
2018-Aug-17 13:59N 52°23' E 004°55'0 0.0
2018-Aug-17 13:26N 52°23' E 004°55'0 0.0
2018-Aug-17 12:59N 52°23' E 004°55'0 0.0
2018-Aug-17 12:29N 52°23' E 004°55'0 0.0
2018-Aug-17 11:59N 52°23' E 004°55'0 0.0
2018-Aug-17 11:29N 52°23' E 004°55'0 0.0
2018-Aug-17 10:59N 52°23' E 004°55'0 0.0
2018-Aug-17 10:29N 52°23' E 004°55'0 0.0
2018-Aug-17 09:59N 52°23' E 004°55'0 0.0
2018-Aug-17 09:29N 52°23' E 004°55'0 0.0
2018-Aug-17 08:59N 52°23' E 004°55'0 0.0
2018-Aug-17 08:29N 52°23' E 004°55'0 0.0
2018-Aug-17 07:59N 52°23' E 004°55'0 0.0
2018-Aug-17 07:29N 52°23' E 004°55'0 0.0
2018-Aug-17 06:59N 52°23' E 004°55'0 0.0
2018-Aug-17 06:29N 52°23' E 004°55'0 0.0
2018-Aug-17 05:59N 52°23' E 004°55'0 0.0
2018-Aug-17 05:29N 52°23' E 004°55'0 0.0
2018-Aug-17 04:59N 52°23' E 004°55'0 0.1
2018-Aug-17 04:30N 52°23' E 004°55'2 5.0
2018-Aug-17 04:00N 52°25' E 004°52'3 6.7
2018-Aug-17 03:30N 52°26' E 004°47'4 7.4
2018-Aug-17 03:00N 52°27' E 004°41'3 6.0
2018-Aug-17 02:30N 52°28' E 004°37'1 1.8
2018-Aug-17 02:00N 52°28' E 004°35'3 5.5
2018-Aug-17 01:30N 52°28' E 004°31'3 6.6
2018-Aug-17 01:00N 52°28' E 004°25'4 7.0
2018-Aug-17 00:30N 52°28' E 004°19'4 9.0
2018-Aug-17 00:00N 52°29' E 004°12'5 9.6
2018-Aug-16 23:30N 52°28' E 004°04'510.0
2018-Aug-16 23:00N 52°27' E 003°56'4 8.5
2018-Aug-16 22:30N 52°26' E 003°50'9 9.2
2018-Aug-16 21:29N 52°24' E 003°35'4 9.2
2018-Aug-16 21:00N 52°21' E 003°30'5 9.1
2018-Aug-16 20:30N 52°18' E 003°24'4 8.9
2018-Aug-16 20:00N 52°15' E 003°19'4 8.8
2018-Aug-16 19:30N 52°11' E 003°14'27 9.6
2018-Aug-16 16:45N 51°51' E 002°45'10 9.7
2018-Aug-16 15:42N 51°44' E 002°35'2 9.9
2018-Aug-16 15:29N 51°42' E 002°32'5 9.7
2018-Aug-16 14:59N 51°39' E 002°27'5 9.7
2018-Aug-16 14:29N 51°35' E 002°22'5 9.9
2018-Aug-16 14:00N 51°31' E 002°17'5 9.7
2018-Aug-16 13:30N 51°28' E 002°11'5 9.7
2018-Aug-16 13:00N 51°25' E 002°06'4 8.2
2018-Aug-16 12:30N 51°24' E 001°60'5 9.8
2018-Aug-16 12:00N 51°27' E 001°54'5 9.8
2018-Aug-16 11:30N 51°30' E 001°47'510.0
2018-Aug-16 11:00N 51°29' E 001°39'5 9.6
2018-Aug-16 10:30N 51°26' E 001°33'3 7.1
2018-Aug-16 10:01N 51°24' E 001°29'4 7.4
2018-Aug-16 09:30N 51°27' E 001°27'714.2
2018-Aug-16 09:00N 51°29' E 001°16'714.3
2018-Aug-16 08:30N 51°30' E 001°04'815.7
2018-Aug-16 08:00N 51°29' E 000°52'917.7
2018-Aug-16 07:30N 51°30' E 000°37'714.6
2018-Aug-16 07:01N 51°27' E 000°27'510.4
2018-Aug-16 06:31N 51°28' E 000°18'611.3
2018-Aug-16 06:00N 51°30' E 000°10'4 0.1
2018-Aug-14 03:14N 51°30' E 000°04'210.3
2018-Aug-14 03:00N 51°31' E 000°07'510.0
2018-Aug-14 02:30N 51°29' E 000°14'5 9.6
2018-Aug-14 02:01N 51°27' E 000°21'4 8.3
2018-Aug-14 01:30N 51°29' E 000°27'510.0
2018-Aug-14 01:00N 51°30' E 000°35'714.2
2018-Aug-14 00:30N 51°29' E 000°46'714.2
2018-Aug-14 00:00N 51°29' E 000°58'714.1
2018-Aug-13 23:30N 51°29' E 001°09'715.0
2018-Aug-13 23:00N 51°28' E 001°21'714.9
2018-Aug-13 22:30N 51°29' E 001°33'612.0
2018-Aug-13 22:01N 51°31' E 001°42'918.5
2018-Aug-13 21:31N 51°36' E 001°55'918.5
2018-Aug-13 21:00N 51°43' E 002°04'917.7
2018-Aug-13 20:30N 51°51' E 002°11'917.3
2018-Aug-13 20:01N 51°59' E 002°15'816.9
2018-Aug-13 19:30N 52°07' E 002°16'916.1
2018-Aug-13 18:58N 52°16' E 002°18'21614.3
2018-Aug-13 03:50N 55°22' W 000°48'1117.2
2018-Aug-13 03:13N 55°29' W 001°01'717.2
2018-Aug-13 02:49N 55°34' W 001°11'717.2
2018-Aug-13 02:25N 55°39' W 001°19'717.5
2018-Aug-13 02:01N 55°44' W 001°28'817.0
2018-Aug-13 01:31N 55°49' W 001°39'816.2
2018-Aug-13 01:01N 55°55' W 001°50'815.8
2018-Aug-13 00:30N 56°00' W 002°00'815.5
2018-Aug-13 00:00N 56°06' W 002°10'1914.5
2018-Aug-12 22:43N 56°08' W 002°44'314.5
2018-Aug-12 22:30N 56°07' W 002°49'815.5
2018-Aug-12 22:01N 56°03' W 003°00'611.1
2018-Aug-12 21:29N 56°00' W 003°10'1 2.7
2018-Aug-12 21:01N 55°59' W 003°11'0 0.0
2018-Aug-12 20:30N 55°59' W 003°11'0 0.9
2018-Aug-12 20:00N 55°59' W 003°11'0 0.0
2018-Aug-12 19:28N 55°59' W 003°11'0 0.0
2018-Aug-12 18:58N 55°59' W 003°11'0 0.0
2018-Aug-12 18:28N 55°59' W 003°11'0 0.0
2018-Aug-12 17:58N 55°59' W 003°11'0 0.0
2018-Aug-12 17:28N 55°59' W 003°11'0 0.0
2018-Aug-12 16:58N 55°59' W 003°11'0 0.0
2018-Aug-12 16:28N 55°59' W 003°11'0 0.0
2018-Aug-12 15:58N 55°59' W 003°11'0 0.0
2018-Aug-12 15:28N 55°59' W 003°11'0 0.0
2018-Aug-12 14:58N 55°59' W 003°11'0 0.0
2018-Aug-12 14:28N 55°59' W 003°11'0 0.0
2018-Aug-12 13:58N 55°59' W 003°11'0 0.0
2018-Aug-12 13:28N 55°59' W 003°11'0 0.0
2018-Aug-12 12:58N 55°59' W 003°11'0 0.0
2018-Aug-12 12:28N 55°59' W 003°11'0 0.0
2018-Aug-12 11:58N 55°59' W 003°11'0 0.0
2018-Aug-12 11:28N 55°59' W 003°11'0 0.0
2018-Aug-12 10:58N 55°59' W 003°11'0 0.0
2018-Aug-12 10:28N 55°59' W 003°11'0 0.0
2018-Aug-12 09:58N 55°59' W 003°11'0 0.0
2018-Aug-12 09:28N 55°59' W 003°11'0 0.0
2018-Aug-12 08:58N 55°59' W 003°11'0 0.0
2018-Aug-12 08:28N 55°59' W 003°11'0 0.0
2018-Aug-12 07:58N 55°59' W 003°11'0 0.0
2018-Aug-12 07:28N 55°59' W 003°11'0 0.0
2018-Aug-12 06:58N 55°59' W 003°11'0 0.0
2018-Aug-12 06:28N 55°59' W 003°11'0 0.0
2018-Aug-12 05:58N 55°59' W 003°11'0 0.0
2018-Aug-12 05:28N 55°59' W 003°11'0 0.0
2018-Aug-12 04:58N 55°59' W 003°11'0 0.0
2018-Aug-12 04:28N 55°59' W 003°11'0 0.0
2018-Aug-12 03:58N 55°59' W 003°11'0 0.0
2018-Aug-12 03:28N 55°59' W 003°11'0 0.0
2018-Aug-12 02:58N 55°59' W 003°11'0 0.0
2018-Aug-12 02:28N 55°59' W 003°11'0 0.0
2018-Aug-12 01:58N 55°59' W 003°11'0 0.0
2018-Aug-12 01:28N 55°59' W 003°11'0 0.0
2018-Aug-12 00:58N 55°59' W 003°11'0 0.0
2018-Aug-12 00:28N 55°59' W 003°11'0 0.0
2018-Aug-11 23:58N 55°59' W 003°11'0 0.0
2018-Aug-11 23:28N 55°59' W 003°11'0 0.0
2018-Aug-11 22:58N 55°59' W 003°11'0 0.0
2018-Aug-11 22:28N 55°59' W 003°11'0 0.0
2018-Aug-11 21:58N 55°59' W 003°11'0 0.0
2018-Aug-11 21:28N 55°59' W 003°11'0 0.0
2018-Aug-11 20:58N 55°59' W 003°11'0 0.0
2018-Aug-11 20:28N 55°59' W 003°11'0 0.0
2018-Aug-11 19:58N 55°59' W 003°11'0 0.0
2018-Aug-11 19:28N 55°59' W 003°11'0 0.0
2018-Aug-11 18:58N 55°59' W 003°11'0 0.0
2018-Aug-11 18:28N 55°59' W 003°11'0 0.0
2018-Aug-11 17:58N 55°59' W 003°11'0 0.0
2018-Aug-11 17:25N 55°59' W 003°11'0 0.0
2018-Aug-11 16:58N 55°59' W 003°11'0 0.0
2018-Aug-11 16:28N 55°59' W 003°11'0 0.0
2018-Aug-11 15:58N 55°59' W 003°11'0 0.0
2018-Aug-11 15:28N 55°59' W 003°11'0 0.0
2018-Aug-11 14:58N 55°59' W 003°11'0 0.0
2018-Aug-11 14:28N 55°59' W 003°11'0 0.0
2018-Aug-11 14:00N 55°59' W 003°11'0 0.0
2018-Aug-11 13:30N 55°59' W 003°11'0 0.8
2018-Aug-11 13:00N 55°59' W 003°11'1 1.6
2018-Aug-11 12:29N 55°60' W 003°12'4 8.0
2018-Aug-11 12:00N 56°01' W 003°05'713.7
2018-Aug-11 11:30N 56°04' W 002°54'816.8
2018-Aug-11 11:00N 56°07' W 002°40'714.3
2018-Aug-11 10:30N 56°08' W 002°27'611.5
2018-Aug-11 09:58N 56°12' W 002°18'611.8
2018-Aug-11 09:29N 56°17' W 002°14'612.1
2018-Aug-11 09:00N 56°23' W 002°11'3412.4
2018-Aug-11 06:13N 56°55' W 001°51'312.8
2018-Aug-11 06:00N 56°58' W 001°50'612.8
2018-Aug-11 05:30N 57°04' W 001°47'713.2
2018-Aug-11 05:00N 57°10' W 001°44'713.1
2018-Aug-11 04:30N 57°17' W 001°42'712.8
2018-Aug-11 03:57N 57°24' W 001°39'612.6
2018-Aug-11 03:30N 57°29' W 001°38'813.5
2018-Aug-11 02:55N 57°37' W 001°38'8214.0
2018-Aug-10 21:06N 58°53' W 002°34'713.8
2018-Aug-10 20:37N 58°59' W 002°40'214.5
2018-Aug-10 20:31N 58°60' W 002°43'713.8
2018-Aug-10 20:00N 59°01' W 002°56'2 3.5
2018-Aug-10 19:29N 59°00' W 002°58'0 0.0
2018-Aug-10 18:59N 59°00' W 002°58'0 0.0
2018-Aug-10 18:26N 59°00' W 002°58'0 0.0
2018-Aug-10 17:53N 59°00' W 002°58'0 0.0
2018-Aug-10 17:29N 59°00' W 002°58'0 0.0
2018-Aug-10 16:59N 59°00' W 002°58'0 0.0
2018-Aug-10 16:29N 59°00' W 002°58'0 0.0
2018-Aug-10 15:59N 59°00' W 002°58'0 0.0
2018-Aug-10 15:29N 59°00' W 002°58'0 0.0
2018-Aug-10 14:59N 59°00' W 002°58'0 0.0
2018-Aug-10 14:29N 59°00' W 002°58'0 0.0
2018-Aug-10 13:59N 59°00' W 002°58'0 0.0
2018-Aug-10 13:29N 59°00' W 002°58'0 0.0
2018-Aug-10 12:56N 59°00' W 002°58'0 0.0
2018-Aug-10 12:29N 59°00' W 002°58'0 0.0
2018-Aug-10 11:59N 59°00' W 002°58'0 0.0
2018-Aug-10 11:29N 59°00' W 002°58'0 0.0
2018-Aug-10 10:59N 59°00' W 002°58'0 0.0
2018-Aug-10 10:29N 59°00' W 002°58'0 0.0
2018-Aug-10 09:59N 59°00' W 002°58'0 0.0
2018-Aug-10 09:29N 59°00' W 002°58'0 0.0
2018-Aug-10 08:59N 59°00' W 002°58'0 0.0
2018-Aug-10 08:29N 59°00' W 002°58'0 0.0
2018-Aug-10 07:59N 59°00' W 002°58'0 0.0
2018-Aug-10 07:29N 59°00' W 002°58'0 0.0
2018-Aug-10 06:59N 59°00' W 002°58'0 0.1
2018-Aug-10 06:30N 58°60' W 002°58'4 7.1
2018-Aug-10 06:00N 59°01' W 002°52'510.6
2018-Aug-10 05:30N 58°60' W 002°41'510.0
2018-Aug-10 05:00N 58°60' W 002°32'91 2.7
2018-Aug-08 19:49N 58°31' W 005°18'  

Dump ship's entire track history